createdAt,value
2022-12-18T05:53:11.543Z,100088.16
2022-12-18T05:55:40.133Z,100074.63
2022-12-18T05:58:08.734Z,100082.44
2022-12-18T06:00:40.691Z,100089.06
2022-12-18T06:03:09.582Z,100092.56
2022-12-18T06:05:38.370Z,100088.41
2022-12-18T06:08:05.324Z,100076.47
2022-12-18T06:10:32.394Z,100090.97
2022-12-18T06:12:59.114Z,100103.97
2022-12-18T06:15:25.634Z,100108.44
2022-12-18T06:17:52.441Z,100084.91
2022-12-18T06:20:19.261Z,100103.75
2022-12-18T06:22:45.810Z,100095.34
2022-12-18T06:25:12.481Z,100096.25
2022-12-18T06:27:39.055Z,100093.44
2022-12-18T06:30:06.622Z,100101.22
2022-12-18T06:32:33.267Z,100104.78
2022-12-18T06:34:59.781Z,100106.59
2022-12-18T06:37:27.056Z,100099.81
2022-12-18T06:39:54.382Z,100109.97
2022-12-18T06:42:24.801Z,100118.06
2022-12-18T06:44:51.456Z,100109.47
2022-12-18T06:47:17.941Z,100106.00
2022-12-18T06:49:44.559Z,100111.22
2022-12-18T06:52:11.125Z,100119.94
2022-12-18T06:54:37.718Z,100115.75
2022-12-18T06:57:04.237Z,100124.16
2022-12-18T06:59:30.767Z,100120.69
2022-12-18T07:01:57.504Z,100123.47
2022-12-18T07:04:29.201Z,100134.66
2022-12-18T07:06:55.671Z,100133.63
2022-12-18T07:09:22.164Z,100129.41
2022-12-18T07:11:48.635Z,100123.28
2022-12-18T07:14:15.165Z,100124.31
2022-12-18T07:16:41.833Z,100120.88
2022-12-18T07:19:08.361Z,100097.72
2022-12-18T07:21:34.801Z,100098.63
2022-12-18T07:24:01.416Z,100095.09
2022-12-18T07:26:27.886Z,100098.50
2022-12-18T07:28:58.602Z,100106.41
2022-12-18T07:31:25.774Z,100109.00
2022-12-18T07:33:53.157Z,100119.41
2022-12-18T07:36:20.269Z,100120.03
2022-12-18T07:38:50.649Z,100128.00
2022-12-18T07:41:39.407Z,100127.22
2022-12-18T07:44:11.533Z,100133.41
2022-12-18T07:46:38.220Z,100132.50
2022-12-18T07:49:05.390Z,100139.41
2022-12-18T07:51:31.965Z,100150.81
2022-12-18T07:53:58.457Z,100149.13
2022-12-18T07:56:28.291Z,100149.69
2022-12-18T07:58:56.427Z,100160.00
2022-12-18T08:01:23.141Z,100160.22
2022-12-18T08:03:49.906Z,100153.50
2022-12-18T08:06:18.628Z,100151.03
2022-12-18T08:08:45.150Z,100140.66
2022-12-18T08:11:11.652Z,100139.81
2022-12-18T08:13:38.484Z,100151.97
2022-12-18T08:16:07.965Z,100146.84
2022-12-18T08:18:36.316Z,100164.16
2022-12-18T08:21:15.829Z,100160.47
2022-12-18T08:23:43.747Z,100166.53
2022-12-18T08:26:11.994Z,100162.28
2022-12-18T08:28:39.023Z,100146.69
2022-12-18T08:31:05.774Z,100153.78
2022-12-18T08:33:33.792Z,100160.69
2022-12-18T08:36:01.436Z,100164.81
2022-12-18T08:38:28.322Z,100152.97
2022-12-18T08:41:01.385Z,100159.09
2022-12-18T08:43:47.995Z,100155.66
2022-12-18T08:46:19.100Z,100156.50
2022-12-18T08:48:46.111Z,100160.81
2022-12-18T08:51:12.749Z,100163.34
2022-12-18T08:53:39.974Z,100149.50
2022-12-18T08:56:06.967Z,100152.09
2022-12-18T08:58:33.483Z,100154.69
2022-12-18T09:01:05.015Z,100147.78
2022-12-18T09:03:31.893Z,100145.22
2022-12-18T09:05:58.397Z,100149.56
2022-12-18T09:08:24.932Z,100132.25
2022-12-18T09:10:51.722Z,100144.38
2022-12-18T09:13:19.595Z,100138.31
2022-12-18T09:15:51.528Z,100150.44
2022-12-18T09:18:19.725Z,100135.72
2022-12-18T09:20:46.876Z,100145.22
2022-12-18T09:23:13.930Z,100139.19
2022-12-18T09:25:40.533Z,100110.63
2022-12-18T09:28:18.989Z,100148.72
2022-12-18T09:30:50.317Z,100157.38
2022-12-18T09:33:17.913Z,100139.19
2022-12-18T09:35:46.104Z,100140.06
2022-12-18T09:38:15.009Z,100116.66
2022-12-18T09:41:04.498Z,100136.59
2022-12-18T09:43:44.080Z,100133.97
2022-12-18T09:46:17.034Z,100123.59
2022-12-18T09:48:48.582Z,100114.91
2022-12-18T09:51:19.303Z,100132.25
2022-12-18T09:53:51.852Z,100118.97
2022-12-18T09:56:20.484Z,100124.31
2022-12-18T09:58:59.535Z,100090.34
2022-12-18T10:01:36.304Z,100134.66
2022-12-18T10:04:10.345Z,100121.75
2022-12-18T10:06:44.066Z,100133.03
2022-12-18T10:09:53.131Z,100120.03
2022-12-18T10:12:34.004Z,100130.44
2022-12-18T10:15:23.348Z,100126.91
2022-12-18T10:18:03.569Z,100101.81
2022-12-18T10:20:39.046Z,100110.88
2022-12-18T10:23:21.052Z,100106.44
2022-12-18T10:26:03.043Z,100090.19
2022-12-18T10:28:32.377Z,100106.59
2022-12-18T10:30:59.672Z,100112.50
2022-12-18T10:33:30.930Z,100116.22
2022-12-18T10:35:57.429Z,100124.03
2022-12-18T10:38:27.304Z,100103.81
2022-12-18T10:41:23.026Z,100118.38
2022-12-18T10:44:12.281Z,100132.28
2022-12-18T10:46:39.390Z,100098.72
2022-12-18T10:49:05.902Z,100133.16
2022-12-18T10:51:38.319Z,100133.16
2022-12-18T10:54:13.800Z,100129.44
2022-12-18T10:56:41.022Z,100141.00
2022-12-18T10:59:15.411Z,100141.16
2022-12-18T11:01:58.867Z,100149.19
2022-12-18T11:04:26.805Z,100170.16
2022-12-18T11:07:02.252Z,100165.97
2022-12-18T11:09:34.236Z,100158.00
2022-12-18T11:12:15.423Z,100136.44
2022-12-18T11:14:49.752Z,100132.84
2022-12-18T11:17:27.128Z,100127.69
2022-12-18T11:19:56.153Z,100114.41
2022-12-18T11:22:22.761Z,100117.00
2022-12-18T11:25:30.653Z,100119.53
2022-12-18T11:27:59.141Z,100116.34
2022-12-18T11:30:31.121Z,100127.69
2022-12-18T11:33:12.289Z,100126.81
2022-12-18T11:35:43.464Z,100133.75
2022-12-18T11:38:25.031Z,100104.31
2022-12-18T11:41:10.395Z,100115.41
2022-12-18T11:43:42.169Z,100118.84
2022-12-18T11:46:19.606Z,100109.53
2022-12-18T11:48:55.467Z,100092.19
2022-12-18T11:51:29.625Z,100096.41
2022-12-18T11:53:56.138Z,100087.59
2022-12-18T11:56:44.328Z,100099.09
2022-12-18T11:59:29.397Z,100090.50
2022-12-18T12:02:10.324Z,100078.19
2022-12-18T12:04:57.272Z,100070.94
2022-12-18T12:07:43.866Z,100078.94
2022-12-18T12:10:47.264Z,100082.13
2022-12-18T12:13:41.695Z,100095.94
2022-12-18T12:16:18.378Z,100105.19
2022-12-18T12:19:05.948Z,100115.44
2022-12-18T12:21:46.979Z,100124.47
2022-12-18T12:24:35.288Z,100127.44
2022-12-18T12:27:37.259Z,100147.19
2022-12-18T12:30:30.363Z,100137.47
2022-12-18T12:33:15.789Z,100162.41
2022-12-18T12:35:50.779Z,100118.25
2022-12-18T12:38:26.530Z,100121.88
2022-12-18T12:41:03.073Z,100121.41
2022-12-18T12:43:50.331Z,100086.97
2022-12-18T12:46:20.861Z,100071.34
2022-12-18T12:48:59.973Z,100092.09
2022-12-18T12:51:31.014Z,100083.19
2022-12-18T12:53:59.463Z,100084.69
2022-12-18T12:56:51.280Z,100057.81
2022-12-18T12:59:36.164Z,100061.25
2022-12-18T13:02:10.768Z,100057.00
2022-12-18T13:04:49.135Z,100051.69
2022-12-18T13:08:05.272Z,100073.53
2022-12-18T13:10:41.681Z,100053.53
2022-12-18T13:13:13.307Z,100056.72
2022-12-18T13:15:41.908Z,100042.53
2022-12-18T13:18:11.603Z,100049.00
2022-12-18T13:20:45.628Z,100058.66
2022-12-18T13:23:24.630Z,100053.34
2022-12-18T13:25:55.429Z,100057.81
2022-12-18T13:28:26.040Z,100052.72
2022-12-18T13:30:57.226Z,100044.03
2022-12-18T13:33:27.844Z,100039.75
2022-12-18T13:36:29.304Z,100031.03
2022-12-18T13:39:16.448Z,100033.63
2022-12-18T13:41:48.980Z,100038.78
2022-12-18T13:44:24.284Z,100049.41
2022-12-18T13:46:52.264Z,100045.31
2022-12-18T13:49:36.804Z,100039.94
2022-12-18T13:52:03.539Z,100035.50
2022-12-18T13:54:37.712Z,100032.75
2022-12-18T13:57:07.331Z,100033.97
2022-12-18T13:59:36.702Z,100028.66
2022-12-18T14:02:23.284Z,100027.88
2022-12-18T14:04:51.411Z,100012.25
2022-12-18T14:07:22.432Z,100007.91
2022-12-18T14:10:12.073Z,100007.00
2022-12-18T14:12:57.825Z,99996.81
2022-12-18T14:15:27.456Z,100011.50
2022-12-18T14:18:00.692Z,99993.19
2022-12-18T14:20:29.233Z,99988.94
2022-12-18T14:22:56.926Z,99995.94
2022-12-18T14:25:29.011Z,100005.56
2022-12-18T14:28:07.833Z,100002.84
2022-12-18T14:30:46.001Z,100008.94
2022-12-18T14:33:16.429Z,100017.63
2022-12-18T14:35:53.282Z,100023.72
2022-12-18T14:38:30.611Z,100020.31
2022-12-18T14:41:01.499Z,100019.50
2022-12-18T14:43:30.479Z,100026.47
2022-12-18T14:45:57.855Z,100030.88
2022-12-18T14:48:42.169Z,100019.63
2022-12-18T14:51:11.421Z,100022.25
2022-12-18T14:53:50.446Z,100005.81
2022-12-18T14:56:29.823Z,100016.22
2022-12-18T14:58:59.129Z,100005.84
2022-12-18T15:01:38.905Z,100009.31
2022-12-18T15:04:23.404Z,100005.00
2022-12-18T15:06:49.964Z,100009.31
2022-12-18T15:09:24.551Z,99992.91
2022-12-18T15:11:57.526Z,100011.88
2022-12-18T15:14:41.614Z,100019.72
2022-12-18T15:17:28.572Z,100019.72
2022-12-18T15:20:02.168Z,100008.47
2022-12-18T15:22:31.597Z,100004.19
2022-12-18T15:24:59.687Z,99996.38
2022-12-18T15:27:38.736Z,100018.88
2022-12-18T15:30:11.146Z,100013.69
2022-12-18T15:32:38.593Z,100008.47
2022-12-18T15:35:10.751Z,100010.22
2022-12-18T15:37:40.553Z,100009.38
2022-12-18T15:40:17.436Z,100018.03
2022-12-18T15:43:03.861Z,100011.13
2022-12-18T15:45:30.505Z,100014.56
2022-12-18T15:47:57.403Z,100017.16
2022-12-18T15:50:24.605Z,100019.78
2022-12-18T15:52:53.280Z,100017.16
2022-12-18T15:55:43.430Z,100024.94
2022-12-18T15:58:11.168Z,100017.19
2022-12-18T16:00:41.111Z,100023.22
2022-12-18T16:03:08.277Z,100023.22
2022-12-18T16:05:35.024Z,100005.91
2022-12-18T16:08:01.635Z,100005.06
2022-12-18T16:10:28.314Z,100005.09
2022-12-18T16:12:54.891Z,100015.47
2022-12-18T16:15:24.772Z,100003.34
2022-12-18T16:17:52.809Z,100018.03
2022-12-18T16:20:23.624Z,100010.28
2022-12-18T16:22:50.612Z,100008.53
2022-12-18T16:25:28.343Z,100027.56
2022-12-18T16:27:56.167Z,100014.59
2022-12-18T16:30:32.733Z,100004.19
2022-12-18T16:33:05.645Z,100012.84
2022-12-18T16:35:34.747Z,100002.47
2022-12-18T16:38:01.224Z,100010.28
2022-12-18T16:40:27.784Z,100007.66
2022-12-18T16:42:54.267Z,99985.19
2022-12-18T16:45:20.920Z,100012.88
2022-12-18T16:47:47.485Z,100003.34
2022-12-18T16:50:14.361Z,100003.34
2022-12-18T16:52:41.531Z,100010.28
2022-12-18T16:55:09.002Z,100009.38
2022-12-18T16:57:35.789Z,100011.16
2022-12-18T17:00:05.481Z,99998.13
2022-12-18T17:02:32.901Z,99999.00
2022-12-18T17:04:59.925Z,99983.47
2022-12-18T17:07:28.144Z,99995.53
2022-12-18T17:09:55.390Z,100001.59
2022-12-18T17:12:22.900Z,99996.41
2022-12-18T17:14:49.455Z,99986.03
2022-12-18T17:17:23.924Z,99988.63
2022-12-18T17:19:52.059Z,99996.41
2022-12-18T17:22:18.803Z,99989.50
2022-12-18T17:24:47.046Z,99963.56
2022-12-18T17:27:13.596Z,99973.91
2022-12-18T17:29:45.390Z,99980.00
2022-12-18T17:32:14.228Z,99977.34
2022-12-18T17:34:41.132Z,99959.22
2022-12-18T17:37:08.201Z,99984.31
2022-12-18T17:39:34.777Z,99976.50
2022-12-18T17:42:01.352Z,99979.09
2022-12-18T17:44:28.077Z,99970.47
2022-12-18T17:46:54.871Z,99973.03
2022-12-18T17:49:21.890Z,99951.44
2022-12-18T17:51:48.936Z,99956.63
2022-12-18T17:54:15.584Z,99963.53
2022-12-18T17:56:42.189Z,99971.31
2022-12-18T17:59:09.544Z,99973.06
2022-12-18T18:01:42.413Z,99969.59
2022-12-18T18:04:29.539Z,99962.69
2022-12-18T18:07:14.631Z,99965.31
2022-12-18T18:10:01.530Z,99965.28
2022-12-18T18:13:06.857Z,99964.41
2022-12-18T18:15:57.847Z,99967.88
2022-12-18T18:18:44.732Z,99957.50
2022-12-18T18:21:32.013Z,99961.81
2022-12-18T18:24:23.235Z,99964.41
2022-12-18T18:27:10.099Z,99951.47
2022-12-18T18:29:56.939Z,99949.72
2022-12-18T18:32:43.786Z,99952.34
2022-12-18T18:35:53.424Z,99961.84
2022-12-18T18:38:45.382Z,99962.69
2022-12-18T18:41:34.981Z,99948.84
2022-12-18T18:44:26.179Z,99951.44
2022-12-18T18:47:14.157Z,99953.19
2022-12-18T18:50:01.050Z,99959.25
2022-12-18T18:52:47.947Z,99952.31
2022-12-18T18:55:34.849Z,99934.19
2022-12-18T18:58:21.817Z,99937.63
2022-12-18T19:01:12.727Z,99938.50
2022-12-18T19:04:02.837Z,99954.06
2022-12-18T19:06:49.834Z,99952.31
2022-12-18T19:09:37.640Z,99944.56
2022-12-18T19:12:45.966Z,99937.63
2022-12-18T19:15:34.147Z,99935.91
2022-12-18T19:18:22.558Z,99921.22
2022-12-18T19:21:10.974Z,99923.78
2022-12-18T19:23:58.111Z,99921.22
2022-12-18T19:26:44.957Z,99923.81
2022-12-18T19:29:31.961Z,99909.09
2022-12-18T19:32:18.803Z,99902.19
2022-12-18T19:35:06.112Z,99907.38
2022-12-18T19:37:53.496Z,99927.28
2022-12-18T19:40:41.709Z,99921.22
2022-12-18T19:43:28.593Z,99907.38
2022-12-18T19:46:19.129Z,99922.94
2022-12-18T19:49:06.427Z,99910.84
2022-12-18T19:51:53.312Z,99920.34
2022-12-18T19:54:40.149Z,99920.34
2022-12-18T19:57:27.081Z,99917.75
2022-12-18T20:00:18.651Z,99913.41
2022-12-18T20:03:18.240Z,99914.28
2022-12-18T20:06:35.273Z,99905.66
2022-12-18T20:09:22.636Z,99903.06
2022-12-18T20:12:09.612Z,99909.97
2022-12-18T20:14:56.652Z,99922.09
2022-12-18T20:17:43.592Z,99914.31
2022-12-18T20:20:30.676Z,99895.28
2022-12-18T20:23:18.255Z,99890.94
2022-12-18T20:26:05.261Z,99895.28
2022-12-18T20:28:56.488Z,99909.09
2022-12-18T20:31:43.463Z,99909.13
2022-12-18T20:34:30.288Z,99911.69
2022-12-18T20:37:17.619Z,99903.94
